Time;durP1;ratioP1;P1;durP2;ratioP2;P2;SDS_P1;SDS_P2;PMS_P1;PMS_P2;Temp;Humidity;BMP_temperature;BMP_pressure;BME280_temperature;BME280_humidity;BME280_pressure;Samples;Min_cycle;Max_cycle;Signal;HPM_P1;HPM_P2
2022/01/01 00:02:07;;;;;;;191.60;98.75;;;;;;;10.43;95.87;102239.22;5097409;28;20098;-75
2022/01/01 00:04:32;;;;;;;199.00;104.47;;;;;;;10.49;95.75;102253.31;5093097;28;20030;-72
2022/01/01 00:06:57;;;;;;;205.75;106.70;;;;;;;10.50;95.66;102254.91;5075512;28;20023;-73
2022/01/01 00:09:23;;;;;;;213.30;106.22;;;;;;;10.55;95.64;102240.59;5093499;28;20027;-73
2022/01/01 00:11:48;;;;;;;237.13;119.90;;;;;;;10.49;95.90;102245.56;5073822;28;20115;-73
2022/01/01 00:14:13;;;;;;;197.48;105.80;;;;;;;10.46;96.22;102259.59;5071942;28;20048;-73
2022/01/01 00:16:39;;;;;;;178.57;94.40;;;;;;;10.22;96.05;102220.63;5089926;28;20089;-72
2022/01/01 00:19:04;;;;;;;193.07;96.72;;;;;;;10.52;96.18;102255.59;5089641;28;20055;-72
2022/01/01 00:21:29;;;;;;;169.18;88.03;;;;;;;10.46;96.34;102245.84;5071323;28;20078;-73
2022/01/01 00:23:55;;;;;;;165.30;85.90;;;;;;;10.55;96.26;102258.69;5090713;28;20115;-72
2022/01/01 00:26:20;;;;;;;153.30;82.63;;;;;;;10.53;95.75;102239.09;5093408;28;20439;-72
2022/01/01 00:28:46;;;;;;;143.40;74.43;;;;;;;10.56;95.99;102241.41;5091816;28;20028;-71
2022/01/01 00:31:11;;;;;;;152.80;71.93;;;;;;;10.55;96.30;102237.19;5075432;28;20066;-71
2022/01/01 00:33:37;;;;;;;147.52;67.30;;;;;;;10.49;96.65;102241.19;5073592;28;20055;-72
2022/01/01 00:36:02;;;;;;;141.98;66.25;;;;;;;10.47;96.42;102224.22;5091954;28;20524;-71
2022/01/01 00:38:28;;;;;;;141.85;63.10;;;;;;;10.50;96.61;102232.50;5091736;28;20046;-71
2022/01/01 00:40:53;;;;;;;137.40;60.40;;;;;;;10.57;96.33;102238.66;5091915;28;20038;-72
2022/01/01 00:43:18;;;;;;;131.68;61.38;;;;;;;10.58;96.15;102232.53;5091419;28;20077;-72
2022/01/01 00:45:44;;;;;;;132.40;60.58;;;;;;;10.39;96.06;102218.03;5091694;28;20031;-72
2022/01/01 00:48:09;;;;;;;124.57;59.20;;;;;;;10.56;96.03;102236.25;5075051;28;20122;-70
2022/01/01 00:50:34;;;;;;;130.93;64.15;;;;;;;10.54;96.37;102233.00;5074909;28;20382;-72
2022/01/01 00:53:01;;;;;;;131.15;63.10;;;;;;;10.60;96.03;102245.31;5092126;28;20031;-72
2022/01/01 00:55:26;;;;;;;141.02;68.85;;;;;;;10.61;95.96;102249.50;5092705;28;20050;-72
2022/01/01 00:57:51;;;;;;;150.30;73.65;;;;;;;10.58;95.89;102247.22;5092719;28;20055;-72
2022/01/01 01:00:17;;;;;;;161.43;74.88;;;;;;;10.60;95.75;102245.31;5073823;28;20023;-72
2022/01/01 01:02:42;;;;;;;156.23;76.78;;;;;;;10.54;96.04;102240.75;5074198;28;20500;-72
2022/01/01 01:05:08;;;;;;;152.88;73.85;;;;;;;10.52;96.42;102242.66;5092475;28;20437;-72
2022/01/01 01:07:33;;;;;;;140.98;68.13;;;;;;;10.54;95.97;102249.31;5092148;28;20024;-71
2022/01/01 01:09:59;;;;;;;138.68;67.25;;;;;;;10.48;96.32;102249.09;5091355;28;20028;-71
2022/01/01 01:12:27;;;;;;;140.77;69.03;;;;;;;10.52;96.21;102250.41;5091435;28;20462;-71
2022/01/01 01:14:53;;;;;;;149.50;68.95;;;;;;;10.49;96.47;102254.13;5091356;28;20024;-71
2022/01/01 01:17:19;;;;;;;153.35;74.43;;;;;;;10.58;95.91;102253.22;5091468;28;20026;-71
2022/01/01 01:19:44;;;;;;;140.70;70.60;;;;;;;10.55;96.14;102243.16;5092367;28;20429;-71
2022/01/01 01:22:10;;;;;;;151.90;72.82;;;;;;;10.47;96.09;102237.13;5075211;28;20493;-72
2022/01/01 01:24:36;;;;;;;144.80;68.15;;;;;;;10.50;96.22;102247.16;5093381;28;20028;-72
2022/01/01 01:27:03;;;;;;;139.15;72.22;;;;;;;10.49;96.46;102255.88;5093380;28;20095;-71
2022/01/01 01:29:36;;;;;;;130.38;63.85;;;;;;;10.50;96.38;102266.09;5093299;28;20027;-71
2022/01/01 01:32:02;;;;;;;137.77;62.03;;;;;;;10.51;96.77;102270.28;5075248;28;20034;-71
2022/01/01 01:34:27;;;;;;;131.38;64.13;;;;;;;10.51;96.84;102272.06;5093293;28;20032;-70
2022/01/01 01:36:53;;;;;;;138.52;65.68;;;;;;;10.58;96.67;102276.47;5093252;28;20024;-71
2022/01/01 01:39:18;;;;;;;132.73;66.05;;;;;;;10.58;96.32;102275.66;5075087;28;20028;-71
2022/01/01 01:41:44;;;;;;;142.85;66.15;;;;;;;10.57;96.28;102274.84;5093418;28;20024;-71
2022/01/01 01:44:35;;;;;;;137.70;65.20;;;;;;;10.50;96.68;102260.09;5075101;28;20386;-71
2022/01/01 01:47:02;;;;;;;139.35;66.00;;;;;;;10.64;96.29;102275.06;5093254;28;20024;-71
2022/01/01 01:49:29;;;;;;;150.70;68.28;;;;;;;10.67;96.04;102284.28;5093101;28;20099;-72
2022/01/01 01:51:55;;;;;;;134.07;62.97;;;;;;;10.61;96.71;102281.34;5093142;28;20455;-71
2022/01/01 01:54:21;;;;;;;133.77;59.13;;;;;;;10.66;96.51;102280.91;5075537;28;20023;-72
2022/01/01 01:56:47;;;;;;;141.88;61.40;;;;;;;10.72;96.62;102271.72;5096242;28;20024;-72
2022/01/01 01:59:14;;;;;;;131.63;60.00;;;;;;;10.76;96.37;102273.03;5096344;28;20045;-72
2022/01/01 02:01:39;;;;;;;130.43;54.75;;;;;;;10.70;96.70;102271.88;5077820;28;20063;-72
2022/01/01 02:04:04;;;;;;;120.72;52.75;;;;;;;10.77;96.71;102272.09;5096861;28;20070;-71
2022/01/01 02:06:30;;;;;;;136.00;60.20;;;;;;;10.75;96.21;102272.22;5096878;28;20035;-71
2022/01/01 02:08:55;;;;;;;129.35;63.38;;;;;;;10.82;96.50;102267.28;5096753;28;20078;-72
2022/01/01 02:11:22;;;;;;;128.82;55.30;;;;;;;10.83;96.37;102271.47;5097021;28;20375;-71
2022/01/01 02:14:16;;;;;;;111.47;48.67;;;;;;;10.78;96.92;102277.09;5096573;28;20016;-71
2022/01/01 02:17:06;;;;;;;101.85;43.25;;;;;;;10.81;96.98;102278.56;5095136;28;20542;-71
2022/01/01 02:19:23;;;;;;;90.55;40.33;;;;;;;10.80;96.86;102277.75;5096025;28;20028;-71
2022/01/01 02:21:51;;;;;;;93.45;38.30;;;;;;;10.82;97.19;102288.78;5096076;28;20470;-71
2022/01/01 02:24:16;;;;;;;97.18;35.53;;;;;;;10.93;96.88;102289.47;5094514;28;20335;-71
2022/01/01 02:26:41;;;;;;;86.38;34.78;;;;;;;10.92;96.96;102283.50;5094458;28;20323;-71
2022/01/01 02:29:07;;;;;;;92.13;33.72;;;;;;;10.90;97.05;102277.66;5074710;28;20016;-72
2022/01/01 02:31:33;;;;;;;80.07;29.48;;;;;;;10.94;97.03;102288.53;5095134;28;20373;-71
2022/01/01 02:34:06;;;;;;;71.93;28.20;;;;;;;10.93;97.13;102284.31;5094767;28;20059;-71
2022/01/01 02:36:37;;;;;;;71.70;27.52;;;;;;;10.93;96.99;102284.31;5094696;28;20028;-72
2022/01/01 02:39:19;;;;;;;83.15;27.77;;;;;;;10.94;97.10;102275.59;5096262;28;20032;-71
2022/01/01 02:41:45;;;;;;;65.53;26.05;;;;;;;11.03;96.77;102277.25;5076071;28;20496;-71
2022/01/01 02:44:11;;;;;;;60.55;21.90;;;;;;;11.07;96.85;102268.22;5094040;28;20020;-71
2022/01/01 02:46:36;;;;;;;57.88;21.83;;;;;;;11.11;96.77;102264.38;5094012;28;20032;-71
2022/01/01 02:49:03;;;;;;;54.45;19.95;;;;;;;11.07;97.20;102265.63;5093919;28;20806;-72
2022/01/01 02:51:29;;;;;;;52.60;19.90;;;;;;;11.07;96.61;102263.03;5075912;28;20107;-72
2022/01/01 02:53:54;;;;;;;55.78;18.90;;;;;;;11.03;97.09;102247.03;5075771;28;20140;-71
2022/01/01 02:56:20;;;;;;;56.05;18.15;;;;;;;11.10;97.26;102252.38;5095167;28;20055;-72
2022/01/01 02:58:45;;;;;;;53.78;17.08;;;;;;;11.09;97.14;102245.59;5095837;28;20027;-71
2022/01/01 03:01:11;;;;;;;46.80;15.80;;;;;;;11.13;97.30;102259.84;5077719;28;20043;-72
2022/01/01 03:03:36;;;;;;;48.03;15.05;;;;;;;11.13;97.66;102267.59;5095759;28;20023;-72
2022/01/01 03:06:02;;;;;;;44.72;14.18;;;;;;;11.16;97.37;102272.47;5095542;28;20469;-72
2022/01/01 03:08:27;;;;;;;48.80;14.18;;;;;;;11.23;97.17;102265.72;5095746;28;20383;-72
2022/01/01 03:10:52;;;;;;;45.97;13.13;;;;;;;11.22;97.46;102258.09;5095550;28;20102;-72
2022/01/01 03:13:18;;;;;;;40.15;13.00;;;;;;;11.25;97.04;102265.59;5077449;28;20024;-72
2022/01/01 03:15:43;;;;;;;41.88;12.15;;;;;;;11.29;97.19;102275.44;5095598;28;20125;-72
2022/01/01 03:18:09;;;;;;;38.30;10.60;;;;;;;11.34;96.83;102271.59;5077392;28;20493;-72
2022/01/01 03:20:35;;;;;;;31.98;10.70;;;;;;;11.35;97.00;102270.63;5095398;28;20382;-73
2022/01/01 03:23:00;;;;;;;48.13;11.32;;;;;;;11.35;97.26;102260.28;5077234;28;20020;-72
2022/01/01 03:25:25;;;;;;;40.00;11.02;;;;;;;11.46;96.92;102252.22;5077362;28;20039;-72
2022/01/01 03:27:50;;;;;;;42.40;11.48;;;;;;;11.47;96.37;102248.66;5095602;28;20020;-72
2022/01/01 03:30:16;;;;;;;33.65;9.73;;;;;;;11.48;95.97;102260.66;5077066;28;20081;-72
2022/01/01 03:32:41;;;;;;;41.22;10.32;;;;;;;11.47;96.29;102243.50;5095703;28;20470;-72
2022/01/01 03:35:07;;;;;;;36.45;11.07;;;;;;;11.51;96.29;102248.22;5076864;28;20016;-69
2022/01/01 03:37:32;;;;;;;43.20;13.40;;;;;;;11.56;95.96;102247.72;5095392;28;20158;-72
2022/01/01 03:39:57;;;;;;;44.95;13.07;;;;;;;11.54;95.96;102239.31;5095106;28;20020;-70
2022/01/01 03:42:22;;;;;;;39.72;13.38;;;;;;;11.57;95.73;102246.78;5076903;28;20024;-71
2022/01/01 03:44:48;;;;;;;54.22;16.40;;;;;;;11.56;96.24;102252.91;5094819;28;20194;-71
2022/01/01 03:47:13;;;;;;;62.67;17.27;;;;;;;11.63;95.48;102256.50;5095207;28;20027;-70
2022/01/01 03:49:39;;;;;;;38.20;12.95;;;;;;;11.61;95.66;102253.25;5094795;28;20378;-70
2022/01/01 03:52:05;;;;;;;39.88;12.75;;;;;;;11.68;95.27;102251.66;5094816;28;20039;-71
2022/01/01 03:54:30;;;;;;;40.78;13.88;;;;;;;11.63;95.56;102259.09;5094458;28;20384;-72
2022/01/01 03:56:56;;;;;;;39.30;14.07;;;;;;;11.60;96.14;102263.78;5076605;28;20036;-71
2022/01/01 03:59:21;;;;;;;43.08;14.55;;;;;;;11.50;95.64;102238.00;5076594;28;20016;-71
2022/01/01 04:01:47;;;;;;;42.42;15.02;;;;;;;11.58;95.74;102248.38;5076509;28;20062;-71
2022/01/01 04:04:12;;;;;;;41.85;16.40;;;;;;;11.56;95.75;102246.91;5094593;28;20027;-72
2022/01/01 04:06:38;;;;;;;55.97;16.70;;;;;;;11.56;95.90;102249.50;5076371;28;20016;-72
2022/01/01 04:09:03;;;;;;;45.92;17.63;;;;;;;11.60;95.99;102241.28;5094433;28;20039;-72
2022/01/01 04:11:28;;;;;;;44.13;17.60;;;;;;;11.56;95.85;102239.94;5094299;28;20027;-72
2022/01/01 04:13:53;;;;;;;47.42;17.50;;;;;;;11.59;96.21;102249.19;5092494;28;20024;-72
2022/01/01 04:16:20;;;;;;;54.85;18.20;;;;;;;11.55;95.62;102250.47;5074328;28;20024;-71
2022/01/01 04:18:45;;;;;;;48.97;18.20;;;;;;;11.58;95.88;102250.97;5092350;28;20078;-72
2022/01/01 04:21:11;;;;;;;51.78;17.92;;;;;;;11.46;95.73;102236.69;5092941;28;20421;-72
2022/01/01 04:23:38;;;;;;;46.83;17.45;;;;;;;11.64;95.53;102263.28;5092840;28;20432;-72
2022/01/01 04:26:03;;;;;;;45.88;17.60;;;;;;;11.60;95.87;102256.81;5092784;28;20039;-72
2022/01/01 04:28:28;;;;;;;42.28;17.20;;;;;;;11.63;95.86;102261.66;5092990;28;20386;-72
2022/01/01 04:30:54;;;;;;;47.10;17.65;;;;;;;11.64;95.44;102257.28;5075925;28;20359;-72
2022/01/01 04:33:19;;;;;;;45.15;16.88;;;;;;;11.68;95.40;102264.59;5094139;28;20024;-72
2022/01/01 04:35:44;;;;;;;46.47;17.27;;;;;;;11.62;95.68;102252.25;5075982;28;20409;-72
2022/01/01 04:38:23;;;;;;;44.47;17.77;;;;;;;11.62;95.87;102252.25;5093564;28;20406;-72
2022/01/01 04:40:49;;;;;;;45.13;17.02;;;;;;;11.66;95.68;102251.00;5076364;28;20447;-72
2022/01/01 04:43:14;;;;;;;46.88;17.80;;;;;;;11.68;95.49;102246.47;5075794;28;20027;-72
2022/01/01 04:45:39;;;;;;;47.05;16.23;;;;;;;11.70;96.17;102251.47;5075779;28;20082;-72
2022/01/01 04:48:04;;;;;;;48.03;16.35;;;;;;;11.63;95.68;102251.31;5075736;28;20123;-72
2022/01/01 04:50:30;;;;;;;46.22;16.88;;;;;;;11.68;95.60;102253.41;5075631;28;20020;-72
2022/01/01 04:52:56;;;;;;;48.13;17.65;;;;;;;11.65;95.69;102261.50;5093783;28;20070;-72
2022/01/01 04:55:23;;;;;;;46.75;16.77;;;;;;;11.60;95.63;102268.94;5093597;28;20152;-72
2022/01/01 04:57:48;;;;;;;45.55;16.35;;;;;;;11.59;95.58;102273.28;5075574;28;20055;-71
2022/01/01 05:00:14;;;;;;;36.72;15.27;;;;;;;11.55;96.07;102273.78;5075544;28;20067;-71
2022/01/01 05:02:39;;;;;;;43.83;15.90;;;;;;;11.54;95.73;102270.38;5093592;28;20028;-72
2022/01/01 05:05:05;;;;;;;44.17;16.48;;;;;;;11.54;96.08;102278.16;5093643;28;20382;-72
2022/01/01 05:07:30;;;;;;;49.40;16.45;;;;;;;11.48;96.16;102271.81;5075532;28;20024;-72
2022/01/01 05:09:56;;;;;;;38.70;15.50;;;;;;;11.41;95.79;102267.41;5075398;28;20031;-72
2022/01/01 05:12:21;;;;;;;43.80;15.63;;;;;;;11.51;95.86;102270.69;5075445;28;20023;-71
2022/01/01 05:14:46;;;;;;;32.95;14.15;;;;;;;11.52;96.05;102267.94;5093538;28;20031;-72
2022/01/01 05:17:13;;;;;;;37.45;14.98;;;;;;;11.51;95.68;102263.75;5075348;28;20360;-72
2022/01/01 05:19:38;;;;;;;37.15;14.88;;;;;;;11.48;95.51;102265.84;5093477;28;20070;-72
2022/01/01 05:22:04;;;;;;;36.42;14.48;;;;;;;11.51;95.89;102268.09;5093696;28;20099;-72
2022/01/01 05:24:29;;;;;;;36.38;14.50;;;;;;;11.39;96.05;102259.78;5093436;28;20031;-72
2022/01/01 05:26:54;;;;;;;39.15;14.85;;;;;;;11.37;96.31;102260.94;5075273;28;20115;-72
2022/01/01 05:29:19;;;;;;;35.88;13.35;;;;;;;11.32;96.05;102260.59;5077669;28;20024;-72
2022/01/01 05:31:45;;;;;;;38.22;14.20;;;;;;;11.28;96.25;102247.97;5097535;28;20034;-71
2022/01/01 05:34:10;;;;;;;35.30;13.48;;;;;;;11.31;96.32;102233.91;5097481;28;20024;-71
2022/01/01 05:36:35;;;;;;;38.80;13.80;;;;;;;11.22;96.85;102237.41;5097491;28;20028;-72
2022/01/01 05:39:01;;;;;;;35.78;13.05;;;;;;;11.25;96.32;102248.28;5097381;28;20016;-72
2022/01/01 05:41:26;;;;;;;36.30;13.73;;;;;;;11.27;96.00;102235.97;5097643;28;20027;-72
2022/01/01 05:43:51;;;;;;;36.70;13.35;;;;;;;11.27;96.23;102229.97;5097342;28;20070;-72
2022/01/01 05:46:17;;;;;;;36.75;13.75;;;;;;;11.14;96.30;102233.03;5097859;28;20056;-73
2022/01/01 05:48:42;;;;;;;34.25;12.77;;;;;;;11.09;97.17;102227.50;5097508;28;20024;-72
2022/01/01 05:51:08;;;;;;;41.05;13.63;;;;;;;11.05;96.71;102228.78;5097069;28;20028;-72
2022/01/01 05:53:34;;;;;;;37.22;13.40;;;;;;;11.00;97.26;102224.06;5097065;28;20425;-73
2022/01/01 05:55:59;;;;;;;45.20;13.43;;;;;;;11.01;96.98;102222.28;5078781;28;20430;-72
2022/01/01 05:58:25;;;;;;;35.85;13.63;;;;;;;10.96;97.21;102224.50;5078944;28;20024;-72
2022/01/01 06:00:50;;;;;;;41.55;13.50;;;;;;;10.97;96.98;102229.53;5097061;28;20043;-72
2022/01/01 06:03:17;;;;;;;39.88;13.80;;;;;;;10.91;96.91;102227.56;5096998;28;20478;-72
2022/01/01 06:05:42;;;;;;;31.90;12.82;;;;;;;10.93;97.20;102228.22;5096949;28;20051;-72
2022/01/01 06:08:08;;;;;;;36.10;13.13;;;;;;;10.90;97.23;102243.22;5078724;28;20020;-72
2022/01/01 06:10:33;;;;;;;39.50;13.02;;;;;;;10.90;96.90;102236.28;5096795;28;20055;-72
2022/01/01 06:12:58;;;;;;;32.67;12.90;;;;;;;10.82;96.61;102228.50;5096807;28;20107;-72
2022/01/01 06:15:24;;;;;;;33.13;12.02;;;;;;;10.90;96.82;102236.28;5097282;28;20158;-72
2022/01/01 06:17:49;;;;;;;29.20;12.35;;;;;;;10.85;96.74;102238.53;5078454;28;20028;-72
2022/01/01 06:20:15;;;;;;;27.70;11.73;;;;;;;10.81;96.89;102229.44;5078488;28;20020;-72
2022/01/01 06:22:42;;;;;;;28.27;11.77;;;;;;;10.77;97.41;102223.78;5096600;28;20150;-72
2022/01/01 06:25:08;;;;;;;35.38;11.27;;;;;;;10.82;96.88;102218.97;5078385;28;20118;-72
2022/01/01 06:27:33;;;;;;;37.15;12.15;;;;;;;10.84;97.05;102221.38;5096452;28;20024;-72
2022/01/01 06:29:59;;;;;;;29.35;11.63;;;;;;;10.84;96.64;102231.72;5096504;28;20031;-72
2022/01/01 06:32:24;;;;;;;28.73;11.90;;;;;;;10.77;96.46;102223.78;5096459;28;20031;-72
2022/01/01 06:34:49;;;;;;;29.75;12.13;;;;;;;10.75;96.59;102225.69;5078429;28;20501;-72
2022/01/01 06:37:15;;;;;;;24.10;10.88;;;;;;;10.80;96.61;102227.81;5096812;28;20031;-72
2022/01/01 06:39:40;;;;;;;32.35;10.95;;;;;;;10.79;96.64;102224.44;5096007;28;20421;-72
2022/01/01 06:42:06;;;;;;;27.90;10.85;;;;;;;10.78;96.48;102233.13;5096365;28;20063;-72
2022/01/01 06:44:31;;;;;;;25.95;10.90;;;;;;;10.77;96.52;102249.63;5096393;28;20441;-72
2022/01/01 06:46:57;;;;;;;30.35;10.95;;;;;;;10.79;96.51;102250.28;5096124;28;20103;-72
2022/01/01 06:49:22;;;;;;;28.83;10.65;;;;;;;10.79;96.73;102255.47;5077874;28;20054;-72
2022/01/01 06:51:47;;;;;;;27.42;10.50;;;;;;;10.87;96.13;102262.44;5077873;28;20024;-72
2022/01/01 06:54:13;;;;;;;26.40;10.35;;;;;;;10.86;95.91;102255.66;5077812;28;20379;-72
2022/01/01 06:56:38;;;;;;;31.27;10.57;;;;;;;10.89;96.04;102264.91;5077743;28;20482;-72
2022/01/01 06:59:04;;;;;;;29.90;10.48;;;;;;;10.91;96.01;102266.38;5077796;28;20115;-72
2022/01/01 07:01:29;;;;;;;23.48;9.80;;;;;;;10.99;95.92;102260.41;5077707;28;20473;-72
2022/01/01 07:03:55;;;;;;;30.92;10.75;;;;;;;11.01;95.97;102261.06;5077733;28;20110;-72
2022/01/01 07:06:21;;;;;;;26.98;10.55;;;;;;;10.99;95.51;102253.47;5095815;28;20028;-72
2022/01/01 07:08:46;;;;;;;27.85;10.85;;;;;;;11.07;95.59;102252.69;5095693;28;20103;-72
2022/01/01 07:11:12;;;;;;;31.38;10.60;;;;;;;11.13;95.29;102249.50;5077376;28;20050;-72
2022/01/01 07:13:38;;;;;;;26.80;10.18;;;;;;;11.11;95.08;102259.19;5095629;28;20494;-72
2022/01/01 07:16:03;;;;;;;26.92;9.88;;;;;;;11.14;95.18;102265.84;5077470;28;20031;-72
2022/01/01 07:18:29;;;;;;;29.00;10.32;;;;;;;11.17;95.09;102268.94;5095543;28;20086;-72
2022/01/01 07:20:54;;;;;;;24.55;10.85;;;;;;;11.12;95.22;102267.78;5096073;28;20050;-72
2022/01/01 07:23:19;;;;;;;26.45;10.00;;;;;;;11.19;95.35;102267.00;5095374;28;20419;-72
2022/01/01 07:25:45;;;;;;;28.35;10.23;;;;;;;11.13;94.72;102267.59;5096223;28;20035;-72
2022/01/01 07:28:13;;;;;;;22.92;9.90;;;;;;;11.17;94.67;102255.19;5095860;28;20016;-73
2022/01/01 07:30:38;;;;;;;25.65;9.70;;;;;;;11.19;94.90;102269.59;5077017;28;20368;-72
2022/01/01 07:33:04;;;;;;;27.00;10.05;;;;;;;11.16;94.63;102263.91;5095710;28;20051;-72
2022/01/01 07:35:29;;;;;;;27.75;9.50;;;;;;;11.11;94.75;102256.63;5077031;28;20051;-72
2022/01/01 07:37:54;;;;;;;26.58;9.77;;;;;;;11.14;94.83;102253.72;5077055;28;20028;-72
2022/01/01 07:40:20;;;;;;;27.08;9.65;;;;;;;11.16;94.54;102256.94;5095146;28;20026;-72
2022/01/01 07:42:46;;;;;;;27.75;9.60;;;;;;;11.21;94.20;102272.81;5076978;28;20024;-71
2022/01/01 07:45:14;;;;;;;26.83;10.43;;;;;;;11.16;94.26;102277.63;5094976;28;20482;-71
2022/01/01 07:47:39;;;;;;;26.67;9.77;;;;;;;11.13;94.41;102279.72;5094944;28;20028;-72
2022/01/01 07:50:06;;;;;;;22.10;9.32;;;;;;;11.14;94.29;102287.34;5094902;28;20020;-72
2022/01/01 07:52:32;;;;;;;27.55;9.27;;;;;;;11.26;93.81;102288.69;5093862;28;20118;-72
2022/01/01 07:54:57;;;;;;;19.02;8.65;;;;;;;11.21;93.98;102282.38;5076480;28;20058;-72
2022/01/01 07:57:22;;;;;;;24.92;10.10;;;;;;;11.24;93.92;102279.47;5094868;28;20111;-72
2022/01/01 07:59:48;;;;;;;23.75;9.55;;;;;;;11.28;93.70;102285.97;5095304;28;20070;-72
2022/01/01 08:02:13;;;;;;;26.88;9.63;;;;;;;11.34;93.43;102282.75;5076550;28;20020;-72
2022/01/01 08:04:38;;;;;;;25.88;8.95;;;;;;;11.31;93.11;102288.25;5094622;28;20484;-72
2022/01/01 08:07:04;;;;;;;25.23;9.18;;;;;;;11.33;93.05;102280.31;5094842;28;20031;-72
2022/01/01 08:09:29;;;;;;;23.23;8.55;;;;;;;11.38;93.21;102280.66;5094443;28;20051;-72
2022/01/01 08:11:55;;;;;;;22.77;8.73;;;;;;;11.47;92.75;102282.31;5094490;28;20027;-72
2022/01/01 08:14:21;;;;;;;22.45;7.88;;;;;;;11.53;92.42;102274.72;5094450;28;20070;-72
2022/01/01 08:17:05;;;;;;;21.83;8.10;;;;;;;11.59;92.01;102277.66;5094777;28;20070;-72
2022/01/01 08:19:31;;;;;;;22.52;8.00;;;;;;;11.62;91.98;102279.94;5094600;28;20016;-72
2022/01/01 08:21:57;;;;;;;20.80;7.47;;;;;;;11.63;91.52;102276.41;5076459;28;20134;-71
2022/01/01 08:24:23;;;;;;;17.30;7.65;;;;;;;11.72;91.59;102270.28;5076117;28;20055;-71
2022/01/01 08:26:50;;;;;;;19.77;8.13;;;;;;;11.65;91.76;102253.72;5094280;28;20094;-71
2022/01/01 08:29:16;;;;;;;25.10;7.25;;;;;;;11.71;91.08;102261.69;5094149;28;20070;-72
2022/01/01 08:31:42;;;;;;;18.38;7.30;;;;;;;11.72;91.17;102259.91;5094998;28;20024;-71
2022/01/01 08:34:07;;;;;;;22.25;7.40;;;;;;;11.72;91.20;102258.13;5075949;28;20111;-71
2022/01/01 08:36:33;;;;;;;17.17;7.18;;;;;;;11.60;91.14;102233.50;5096380;28;20531;-72
2022/01/01 08:38:58;;;;;;;17.15;6.85;;;;;;;11.79;90.66;102262.66;5094189;28;20150;-72
2022/01/01 08:41:25;;;;;;;16.45;6.70;;;;;;;11.75;90.56;102268.16;5075900;28;20021;-72
2022/01/01 08:43:50;;;;;;;29.50;7.53;;;;;;;11.94;90.40;102268.91;5094273;28;20496;-72
2022/01/01 08:46:16;;;;;;;20.42;7.60;;;;;;;11.90;90.16;102268.38;5093953;28;20107;-72
2022/01/01 08:48:42;;;;;;;18.40;7.90;;;;;;;11.95;90.39;102273.91;5093893;28;20109;-72
2022/01/01 08:51:21;;;;;;;21.45;7.55;;;;;;;12.02;90.03;102274.06;5075579;28;20074;-72
2022/01/01 08:53:48;;;;;;;20.98;6.90;;;;;;;12.19;89.41;102275.72;5075684;28;20123;-73
2022/01/01 08:56:14;;;;;;;20.48;10.25;;;;;;;12.21;88.90;102272.16;5093651;28;20048;-71
2022/01/01 08:58:40;;;;;;;18.30;7.65;;;;;;;12.27;88.52;102263.75;5075648;28;20069;-71
2022/01/01 09:01:06;;;;;;;14.70;6.30;;;;;;;12.18;89.05;102261.16;5093671;28;20019;-71
2022/01/01 09:03:34;;;;;;;21.30;6.43;;;;;;;12.23;88.73;102255.50;5093419;28;20031;-71
2022/01/01 09:06:00;;;;;;;18.35;6.32;;;;;;;12.22;88.40;102245.28;5093763;28;20028;-71
2022/01/01 09:08:26;;;;;;;17.95;6.30;;;;;;;12.28;88.30;102247.22;5093654;28;20039;-72
2022/01/01 09:10:51;;;;;;;20.63;6.15;;;;;;;12.13;88.34;102224.53;5096270;28;20055;-73
2022/01/01 09:13:16;;;;;;;15.20;5.82;;;;;;;12.29;88.35;102251.44;5081672;28;20028;-74
2022/01/01 09:15:41;;;;;;;16.65;6.00;;;;;;;12.17;88.90;102253.53;5078748;28;20485;-72
2022/01/01 09:18:07;;;;;;;17.85;6.00;;;;;;;12.11;89.35;102261.94;5093516;28;20028;-72
2022/01/01 09:20:32;;;;;;;15.85;6.35;;;;;;;12.27;88.97;102255.97;5093793;28;20012;-72
2022/01/01 09:22:57;;;;;;;15.82;5.78;;;;;;;12.19;88.52;102249.78;5093509;28;20074;-72
2022/01/01 09:25:23;;;;;;;17.67;5.95;;;;;;;12.24;88.57;102232.97;5075455;28;20024;-72
2022/01/01 09:27:48;;;;;;;15.32;6.10;;;;;;;12.23;87.99;102241.69;5093444;28;20505;-71
2022/01/01 09:30:13;;;;;;;14.57;5.97;;;;;;;12.20;88.41;102240.25;5093446;28;20027;-72
2022/01/01 09:32:39;;;;;;;15.45;6.13;;;;;;;12.33;87.96;102243.16;5093470;28;20494;-72
2022/01/01 09:35:05;;;;;;;14.48;5.90;;;;;;;12.27;88.09;102240.41;5075267;28;20020;-72
2022/01/01 09:37:34;;;;;;;16.80;6.28;;;;;;;12.20;88.19;102235.09;5076188;28;20155;-72
2022/01/01 09:40:00;;;;;;;17.58;6.20;;;;;;;12.14;88.70;102238.28;5093375;28;20469;-72
2022/01/01 09:42:26;;;;;;;11.05;5.45;;;;;;;12.21;88.65;102234.09;5093758;28;20020;-71
2022/01/01 09:44:52;;;;;;;16.83;5.70;;;;;;;12.18;88.68;102237.00;5076402;28;20497;-72
2022/01/01 09:47:18;;;;;;;17.35;6.03;;;;;;;12.10;89.10;102227.44;5075406;28;20024;-71
2022/01/01 09:49:44;;;;;;;17.85;6.20;;;;;;;12.06;89.48;102220.97;5093232;28;20054;-72
2022/01/01 09:52:12;;;;;;;18.17;6.28;;;;;;;11.97;89.60;102227.13;5093257;28;20024;-72
2022/01/01 09:54:37;;;;;;;17.77;6.20;;;;;;;11.95;89.42;102211.72;5093005;28;20028;-72
2022/01/01 09:57:03;;;;;;;15.90;5.82;;;;;;;12.03;89.32;102207.53;5075393;28;20024;-71
2022/01/01 09:59:28;;;;;;;16.95;6.20;;;;;;;12.01;89.07;102202.50;5075428;28;20017;-72
2022/01/01 10:01:53;;;;;;;18.10;6.60;;;;;;;12.05;88.93;102203.00;5093796;28;20428;-72
2022/01/01 10:04:19;;;;;;;14.55;6.30;;;;;;;12.17;88.70;102207.69;5094388;28;20032;-72
2022/01/01 10:07:00;;;;;;;17.80;6.90;;;;;;;12.24;88.44;102209.63;5094310;28;20028;-73
2022/01/01 10:09:33;;;;;;;17.27;6.78;;;;;;;12.11;88.41;102200.59;5075837;28;20060;-72
2022/01/01 10:11:58;;;;;;;14.98;6.82;;;;;;;12.32;88.05;102207.06;5094563;28;20049;-72
2022/01/01 10:14:37;;;;;;;15.27;7.00;;;;;;;12.29;88.01;102213.38;5093892;28;20425;-72
2022/01/01 10:17:23;;;;;;;20.83;6.78;;;;;;;12.70;86.85;102212.50;5079138;28;20036;-72
2022/01/01 10:19:51;;;;;;;17.75;7.22;;;;;;;13.37;83.65;102225.91;5079485;28;20028;-73
2022/01/01 10:22:18;;;;;;;16.55;6.93;;;;;;;14.66;78.18;102222.50;5079456;28;20032;-72
2022/01/01 10:27:42;;;;;;;12.25;6.35;;;;;;;13.07;84.20;102214.50;5098195;28;20035;-71
2022/01/01 10:30:28;;;;;;;19.23;7.10;;;;;;;12.96;85.06;102213.06;5079087;28;20020;-71
2022/01/01 10:33:09;;;;;;;14.27;7.13;;;;;;;12.59;86.09;102219.63;5086027;28;20040;-72
2022/01/01 10:35:39;;;;;;;16.63;7.50;;;;;;;12.42;87.23;102218.03;5097240;28;20035;-72
2022/01/01 10:38:17;;;;;;;15.77;7.78;;;;;;;12.40;87.73;102214.81;5097623;28;20038;-72
2022/01/01 10:40:43;;;;;;;13.65;7.22;;;;;;;12.37;87.39;102217.72;5097462;28;20012;-71
2022/01/01 10:43:10;;;;;;;14.02;7.93;;;;;;;12.27;88.26;102214.50;5097048;28;20077;-72
2022/01/01 10:45:38;;;;;;;18.60;8.40;;;;;;;12.40;88.09;102209.63;5078817;28;20032;-72
2022/01/01 10:48:23;;;;;;;19.92;8.75;;;;;;;12.36;87.82;102206.53;5078970;28;20024;-71
2022/01/01 10:50:51;;;;;;;20.33;8.27;;;;;;;12.52;87.21;102210.91;5097303;28;20035;-72
2022/01/01 10:53:21;;;;;;;16.25;7.55;;;;;;;12.66;86.99;102204.25;5099034;28;20034;-72
2022/01/01 10:55:50;;;;;;;19.25;7.68;;;;;;;13.18;84.74;102200.34;5097471;28;20059;-72
2022/01/01 10:58:21;;;;;;;15.98;8.15;;;;;;;13.40;84.36;102206.56;5097631;28;20027;-73
2022/01/01 11:00:51;;;;;;;17.25;8.73;;;;;;;13.66;82.62;102206.25;5079182;28;20043;-73
2022/01/01 11:03:18;;;;;;;14.63;7.70;;;;;;;13.94;81.39;102209.16;5097322;28;20028;-73
2022/01/01 11:05:45;;;;;;;15.05;7.90;;;;;;;14.19;80.92;102215.78;5097411;28;20150;-73
2022/01/01 11:08:12;;;;;;;20.05;8.75;;;;;;;13.97;81.50;102207.00;5097148;28;20035;-72
2022/01/01 11:10:38;;;;;;;17.48;8.73;;;;;;;14.03;81.22;102207.28;5079308;28;20024;-72